sensor_id;sensor_type;location;lat;lon;timestamp;P1;durP1;ratioP1;P2;durP2;ratioP2
42538;SDS011;28173;51.376;6.760;2022-07-29T00:02:15;2.50;;;1.60;;
42538;SDS011;28173;51.376;6.760;2022-07-29T00:04:44;7.68;;;1.95;;
42538;SDS011;28173;51.376;6.760;2022-07-29T00:07:10;4.00;;;1.55;;
42538;SDS011;28173;51.376;6.760;2022-07-29T00:09:39;4.35;;;1.88;;
42538;SDS011;28173;51.376;6.760;2022-07-29T00:12:18;6.88;;;1.65;;
42538;SDS011;28173;51.376;6.760;2022-07-29T00:14:51;5.47;;;1.90;;
42538;SDS011;28173;51.376;6.760;2022-07-29T00:17:22;6.90;;;1.60;;
42538;SDS011;28173;51.376;6.760;2022-07-29T00:19:49;3.08;;;1.58;;
42538;SDS011;28173;51.376;6.760;2022-07-29T00:22:16;4.47;;;1.50;;
42538;SDS011;28173;51.376;6.760;2022-07-29T00:24:43;2.70;;;1.63;;
42538;SDS011;28173;51.376;6.760;2022-07-29T00:27:10;5.07;;;1.75;;
42538;SDS011;28173;51.376;6.760;2022-07-29T00:29:37;6.88;;;2.17;;
42538;SDS011;28173;51.376;6.760;2022-07-29T00:32:04;5.55;;;1.90;;
42538;SDS011;28173;51.376;6.760;2022-07-29T00:34:31;6.10;;;1.50;;
42538;SDS011;28173;51.376;6.760;2022-07-29T00:39:43;8.00;;;1.90;;
42538;SDS011;28173;51.376;6.760;2022-07-29T00:42:10;5.38;;;1.60;;
42538;SDS011;28173;51.376;6.760;2022-07-29T00:44:37;10.35;;;1.73;;
42538;SDS011;28173;51.376;6.760;2022-07-29T00:47:05;4.63;;;1.80;;
42538;SDS011;28173;51.376;6.760;2022-07-29T00:49:33;2.67;;;1.65;;
42538;SDS011;28173;51.376;6.760;2022-07-29T00:52:01;10.30;;;1.73;;
42538;SDS011;28173;51.376;6.760;2022-07-29T00:54:29;6.95;;;1.55;;
42538;SDS011;28173;51.376;6.760;2022-07-29T00:56:58;3.70;;;1.67;;
42538;SDS011;28173;51.376;6.760;2022-07-29T00:59:25;15.57;;;2.03;;
42538;SDS011;28173;51.376;6.760;2022-07-29T01:02:01;3.60;;;1.50;;
42538;SDS011;28173;51.376;6.760;2022-07-29T01:04:29;7.43;;;2.03;;
42538;SDS011;28173;51.376;6.760;2022-07-29T01:06:57;5.90;;;1.83;;
42538;SDS011;28173;51.376;6.760;2022-07-29T01:09:25;5.88;;;2.00;;
42538;SDS011;28173;51.376;6.760;2022-07-29T01:12:16;5.60;;;1.70;;
42538;SDS011;28173;51.376;6.760;2022-07-29T01:14:45;4.82;;;2.05;;
42538;SDS011;28173;51.376;6.760;2022-07-29T01:17:21;8.20;;;1.83;;
42538;SDS011;28173;51.376;6.760;2022-07-29T01:25:48;6.72;;;1.50;;
42538;SDS011;28173;51.376;6.760;2022-07-29T01:31:00;8.57;;;1.85;;
42538;SDS011;28173;51.376;6.760;2022-07-29T01:33:31;4.30;;;1.95;;
42538;SDS011;28173;51.376;6.760;2022-07-29T01:36:22;6.97;;;1.80;;
42538;SDS011;28173;51.376;6.760;2022-07-29T01:39:00;7.32;;;1.90;;
42538;SDS011;28173;51.376;6.760;2022-07-29T01:41:36;6.82;;;2.28;;
42538;SDS011;28173;51.376;6.760;2022-07-29T01:44:10;4.70;;;1.73;;
42538;SDS011;28173;51.376;6.760;2022-07-29T01:46:41;8.93;;;1.85;;
42538;SDS011;28173;51.376;6.760;2022-07-29T01:49:16;7.22;;;1.90;;
42538;SDS011;28173;51.376;6.760;2022-07-29T01:56:40;8.18;;;2.30;;
42538;SDS011;28173;51.376;6.760;2022-07-29T01:59:08;5.60;;;1.77;;
42538;SDS011;28173;51.376;6.760;2022-07-29T02:01:36;4.82;;;1.70;;
42538;SDS011;28173;51.376;6.760;2022-07-29T02:04:05;8.95;;;2.20;;
42538;SDS011;28173;51.376;6.760;2022-07-29T02:06:33;4.45;;;1.95;;
42538;SDS011;28173;51.376;6.760;2022-07-29T02:09:01;8.27;;;2.08;;
42538;SDS011;28173;51.376;6.760;2022-07-29T02:11:30;8.43;;;2.10;;
42538;SDS011;28173;51.376;6.760;2022-07-29T02:13:57;8.30;;;1.80;;
42538;SDS011;28173;51.376;6.760;2022-07-29T02:16:25;6.68;;;2.22;;
42538;SDS011;28173;51.376;6.760;2022-07-29T02:18:53;5.90;;;1.50;;
42538;SDS011;28173;51.376;6.760;2022-07-29T02:21:24;5.82;;;1.80;;
42538;SDS011;28173;51.376;6.760;2022-07-29T02:23:52;7.43;;;1.95;;
42538;SDS011;28173;51.376;6.760;2022-07-29T02:26:20;5.80;;;1.73;;
42538;SDS011;28173;51.376;6.760;2022-07-29T02:28:48;6.90;;;1.70;;
42538;SDS011;28173;51.376;6.760;2022-07-29T02:31:17;4.47;;;1.90;;
42538;SDS011;28173;51.376;6.760;2022-07-29T02:33:47;5.13;;;1.95;;
42538;SDS011;28173;51.376;6.760;2022-07-29T02:36:15;6.55;;;2.28;;
42538;SDS011;28173;51.376;6.760;2022-07-29T02:38:42;6.88;;;1.88;;
42538;SDS011;28173;51.376;6.760;2022-07-29T02:44:17;5.43;;;2.10;;
42538;SDS011;28173;51.376;6.760;2022-07-29T02:46:49;4.82;;;1.90;;
42538;SDS011;28173;51.376;6.760;2022-07-29T02:51:53;5.93;;;1.77;;
42538;SDS011;28173;51.376;6.760;2022-07-29T02:54:40;7.20;;;1.75;;
42538;SDS011;28173;51.376;6.760;2022-07-29T02:57:35;8.13;;;1.80;;
42538;SDS011;28173;51.376;6.760;2022-07-29T03:00:21;4.85;;;1.60;;
42538;SDS011;28173;51.376;6.760;2022-07-29T03:02:52;5.68;;;1.80;;
42538;SDS011;28173;51.376;6.760;2022-07-29T03:05:20;5.97;;;1.60;;
42538;SDS011;28173;51.376;6.760;2022-07-29T03:07:53;3.92;;;1.50;;
42538;SDS011;28173;51.376;6.760;2022-07-29T03:10:21;6.28;;;2.10;;
42538;SDS011;28173;51.376;6.760;2022-07-29T03:12:49;2.67;;;1.50;;
42538;SDS011;28173;51.376;6.760;2022-07-29T03:15:18;5.15;;;1.75;;
42538;SDS011;28173;51.376;6.760;2022-07-29T03:17:45;6.20;;;1.70;;
42538;SDS011;28173;51.376;6.760;2022-07-29T03:20:16;4.10;;;1.85;;
42538;SDS011;28173;51.376;6.760;2022-07-29T03:22:43;3.85;;;1.70;;
42538;SDS011;28173;51.376;6.760;2022-07-29T03:25:14;4.18;;;1.63;;
42538;SDS011;28173;51.376;6.760;2022-07-29T03:27:42;7.32;;;1.55;;
42538;SDS011;28173;51.376;6.760;2022-07-29T03:30:10;5.55;;;1.80;;
42538;SDS011;28173;51.376;6.760;2022-07-29T03:32:43;4.75;;;1.60;;
42538;SDS011;28173;51.376;6.760;2022-07-29T03:35:11;6.25;;;1.60;;
42538;SDS011;28173;51.376;6.760;2022-07-29T03:37:37;4.95;;;1.45;;
42538;SDS011;28173;51.376;6.760;2022-07-29T03:40:05;7.47;;;1.92;;
42538;SDS011;28173;51.376;6.760;2022-07-29T03:42:35;5.88;;;1.95;;
42538;SDS011;28173;51.376;6.760;2022-07-29T03:45:08;4.45;;;1.60;;
42538;SDS011;28173;51.376;6.760;2022-07-29T03:47:43;5.35;;;1.67;;
42538;SDS011;28173;51.376;6.760;2022-07-29T03:52:46;10.80;;;2.35;;
42538;SDS011;28173;51.376;6.760;2022-07-29T03:55:13;8.52;;;1.98;;
42538;SDS011;28173;51.376;6.760;2022-07-29T03:57:40;4.82;;;1.60;;
42538;SDS011;28173;51.376;6.760;2022-07-29T04:00:08;5.72;;;1.63;;
42538;SDS011;28173;51.376;6.760;2022-07-29T04:02:36;20.13;;;2.30;;
42538;SDS011;28173;51.376;6.760;2022-07-29T04:05:04;5.07;;;1.98;;
42538;SDS011;28173;51.376;6.760;2022-07-29T04:07:31;6.53;;;1.85;;
42538;SDS011;28173;51.376;6.760;2022-07-29T04:09:58;5.47;;;1.85;;
42538;SDS011;28173;51.376;6.760;2022-07-29T04:12:25;6.10;;;1.80;;
42538;SDS011;28173;51.376;6.760;2022-07-29T04:14:53;7.20;;;1.80;;
42538;SDS011;28173;51.376;6.760;2022-07-29T04:17:20;4.65;;;1.75;;
42538;SDS011;28173;51.376;6.760;2022-07-29T04:19:46;4.13;;;1.98;;
42538;SDS011;28173;51.376;6.760;2022-07-29T04:22:13;6.07;;;2.05;;
42538;SDS011;28173;51.376;6.760;2022-07-29T04:24:40;8.77;;;2.20;;
42538;SDS011;28173;51.376;6.760;2022-07-29T04:27:09;6.35;;;2.17;;
42538;SDS011;28173;51.376;6.760;2022-07-29T04:29:36;4.50;;;1.85;;
42538;SDS011;28173;51.376;6.760;2022-07-29T04:32:22;5.53;;;2.03;;
42538;SDS011;28173;51.376;6.760;2022-07-29T04:34:50;7.55;;;2.58;;
42538;SDS011;28173;51.376;6.760;2022-07-29T04:37:17;7.40;;;2.10;;
42538;SDS011;28173;51.376;6.760;2022-07-29T04:39:43;14.93;;;3.78;;
42538;SDS011;28173;51.376;6.760;2022-07-29T04:42:10;7.05;;;2.60;;
42538;SDS011;28173;51.376;6.760;2022-07-29T04:44:38;6.82;;;2.63;;
42538;SDS011;28173;51.376;6.760;2022-07-29T04:47:08;8.77;;;2.90;;
42538;SDS011;28173;51.376;6.760;2022-07-29T04:49:37;7.65;;;3.00;;
42538;SDS011;28173;51.376;6.760;2022-07-29T04:52:05;11.18;;;3.17;;
42538;SDS011;28173;51.376;6.760;2022-07-29T04:54:34;4.82;;;2.83;;
42538;SDS011;28173;51.376;6.760;2022-07-29T04:57:01;6.13;;;2.72;;
42538;SDS011;28173;51.376;6.760;2022-07-29T04:59:28;13.77;;;2.90;;
42538;SDS011;28173;51.376;6.760;2022-07-29T05:01:55;6.65;;;2.78;;
42538;SDS011;28173;51.376;6.760;2022-07-29T05:04:22;10.15;;;2.72;;
42538;SDS011;28173;51.376;6.760;2022-07-29T05:06:49;5.95;;;2.70;;
42538;SDS011;28173;51.376;6.760;2022-07-29T05:09:16;5.75;;;2.90;;
42538;SDS011;28173;51.376;6.760;2022-07-29T05:11:42;9.70;;;3.00;;
42538;SDS011;28173;51.376;6.760;2022-07-29T05:14:09;6.50;;;2.60;;
42538;SDS011;28173;51.376;6.760;2022-07-29T05:16:36;7.43;;;2.50;;
42538;SDS011;28173;51.376;6.760;2022-07-29T05:19:05;8.25;;;3.17;;
42538;SDS011;28173;51.376;6.760;2022-07-29T05:21:39;11.02;;;3.33;;
42538;SDS011;28173;51.376;6.760;2022-07-29T05:24:06;10.38;;;2.75;;
42538;SDS011;28173;51.376;6.760;2022-07-29T05:26:32;7.35;;;2.72;;
42538;SDS011;28173;51.376;6.760;2022-07-29T05:28:59;7.13;;;2.78;;
42538;SDS011;28173;51.376;6.760;2022-07-29T05:31:26;4.60;;;2.70;;
42538;SDS011;28173;51.376;6.760;2022-07-29T05:33:53;6.97;;;3.20;;
42538;SDS011;28173;51.376;6.760;2022-07-29T05:36:20;6.22;;;2.85;;
42538;SDS011;28173;51.376;6.760;2022-07-29T05:38:47;8.27;;;2.80;;
42538;SDS011;28173;51.376;6.760;2022-07-29T05:41:14;5.93;;;2.83;;
42538;SDS011;28173;51.376;6.760;2022-07-29T05:43:41;10.25;;;3.20;;
42538;SDS011;28173;51.376;6.760;2022-07-29T05:46:08;11.50;;;3.53;;
42538;SDS011;28173;51.376;6.760;2022-07-29T05:48:35;12.98;;;3.70;;
42538;SDS011;28173;51.376;6.760;2022-07-29T05:51:02;4.03;;;2.30;;
42538;SDS011;28173;51.376;6.760;2022-07-29T05:53:29;6.15;;;2.60;;
42538;SDS011;28173;51.376;6.760;2022-07-29T05:55:55;10.73;;;2.80;;
42538;SDS011;28173;51.376;6.760;2022-07-29T05:58:22;10.30;;;2.78;;
42538;SDS011;28173;51.376;6.760;2022-07-29T06:00:52;9.70;;;3.08;;
42538;SDS011;28173;51.376;6.760;2022-07-29T06:03:19;5.78;;;2.72;;
42538;SDS011;28173;51.376;6.760;2022-07-29T06:05:46;9.15;;;2.45;;
42538;SDS011;28173;51.376;6.760;2022-07-29T06:08:13;6.53;;;2.60;;
42538;SDS011;28173;51.376;6.760;2022-07-29T06:10:40;8.10;;;2.97;;
42538;SDS011;28173;51.376;6.760;2022-07-29T06:13:07;8.63;;;2.75;;
42538;SDS011;28173;51.376;6.760;2022-07-29T06:15:41;5.95;;;2.80;;
42538;SDS011;28173;51.376;6.760;2022-07-29T06:18:09;7.90;;;2.53;;
42538;SDS011;28173;51.376;6.760;2022-07-29T06:20:37;8.63;;;2.83;;
42538;SDS011;28173;51.376;6.760;2022-07-29T06:23:04;9.63;;;2.92;;
42538;SDS011;28173;51.376;6.760;2022-07-29T06:25:31;10.32;;;2.78;;
42538;SDS011;28173;51.376;6.760;2022-07-29T06:28:01;8.98;;;3.00;;
42538;SDS011;28173;51.376;6.760;2022-07-29T06:30:27;5.63;;;2.45;;
42538;SDS011;28173;51.376;6.760;2022-07-29T06:32:55;5.05;;;2.60;;
42538;SDS011;28173;51.376;6.760;2022-07-29T06:35:22;11.95;;;3.65;;
42538;SDS011;28173;51.376;6.760;2022-07-29T06:38:07;9.25;;;2.83;;
42538;SDS011;28173;51.376;6.760;2022-07-29T06:40:55;8.95;;;3.03;;
42538;SDS011;28173;51.376;6.760;2022-07-29T06:43:48;6.45;;;3.00;;
42538;SDS011;28173;51.376;6.760;2022-07-29T06:46:22;7.22;;;2.65;;
42538;SDS011;28173;51.376;6.760;2022-07-29T06:48:49;5.25;;;2.58;;
42538;SDS011;28173;51.376;6.760;2022-07-29T06:51:18;4.90;;;2.70;;
42538;SDS011;28173;51.376;6.760;2022-07-29T06:53:48;8.43;;;3.40;;
42538;SDS011;28173;51.376;6.760;2022-07-29T06:56:27;8.40;;;3.70;;
42538;SDS011;28173;51.376;6.760;2022-07-29T06:58:54;12.45;;;3.47;;
42538;SDS011;28173;51.376;6.760;2022-07-29T07:01:21;7.47;;;3.38;;
42538;SDS011;28173;51.376;6.760;2022-07-29T07:03:48;7.35;;;3.75;;
42538;SDS011;28173;51.376;6.760;2022-07-29T07:06:15;7.18;;;2.97;;
42538;SDS011;28173;51.376;6.760;2022-07-29T07:08:42;7.25;;;2.97;;
42538;SDS011;28173;51.376;6.760;2022-07-29T07:11:10;5.18;;;2.60;;
42538;SDS011;28173;51.376;6.760;2022-07-29T07:13:36;5.88;;;2.78;;
42538;SDS011;28173;51.376;6.760;2022-07-29T07:16:03;7.22;;;2.70;;
42538;SDS011;28173;51.376;6.760;2022-07-29T07:18:30;5.40;;;2.60;;
42538;SDS011;28173;51.376;6.760;2022-07-29T07:20:58;9.77;;;3.55;;
42538;SDS011;28173;51.376;6.760;2022-07-29T07:23:25;4.38;;;2.83;;
42538;SDS011;28173;51.376;6.760;2022-07-29T07:25:52;6.25;;;2.65;;
42538;SDS011;28173;51.376;6.760;2022-07-29T07:28:19;4.05;;;2.60;;
42538;SDS011;28173;51.376;6.760;2022-07-29T07:30:50;7.28;;;3.10;;
42538;SDS011;28173;51.376;6.760;2022-07-29T07:33:18;10.23;;;3.05;;
42538;SDS011;28173;51.376;6.760;2022-07-29T07:35:45;6.63;;;3.28;;
42538;SDS011;28173;51.376;6.760;2022-07-29T07:38:13;7.47;;;2.90;;
42538;SDS011;28173;51.376;6.760;2022-07-29T07:40:40;5.97;;;2.90;;
42538;SDS011;28173;51.376;6.760;2022-07-29T07:43:07;7.32;;;3.08;;
42538;SDS011;28173;51.376;6.760;2022-07-29T07:45:34;8.57;;;3.08;;
42538;SDS011;28173;51.376;6.760;2022-07-29T07:48:04;5.28;;;2.92;;
42538;SDS011;28173;51.376;6.760;2022-07-29T07:50:31;9.27;;;3.50;;
42538;SDS011;28173;51.376;6.760;2022-07-29T07:52:58;9.43;;;2.90;;
42538;SDS011;28173;51.376;6.760;2022-07-29T07:55:25;15.02;;;6.15;;
42538;SDS011;28173;51.376;6.760;2022-07-29T07:57:53;12.20;;;3.75;;
42538;SDS011;28173;51.376;6.760;2022-07-29T08:00:21;8.90;;;4.40;;
42538;SDS011;28173;51.376;6.760;2022-07-29T08:02:49;7.47;;;3.20;;
42538;SDS011;28173;51.376;6.760;2022-07-29T08:05:17;9.27;;;3.55;;
42538;SDS011;28173;51.376;6.760;2022-07-29T08:07:47;7.07;;;3.30;;
42538;SDS011;28173;51.376;6.760;2022-07-29T08:10:18;10.27;;;3.45;;
42538;SDS011;28173;51.376;6.760;2022-07-29T08:13:05;8.38;;;3.10;;
42538;SDS011;28173;51.376;6.760;2022-07-29T08:15:34;8.60;;;3.70;;
42538;SDS011;28173;51.376;6.760;2022-07-29T08:18:01;6.35;;;3.60;;
42538;SDS011;28173;51.376;6.760;2022-07-29T08:20:35;6.15;;;3.20;;
42538;SDS011;28173;51.376;6.760;2022-07-29T08:23:02;10.50;;;3.67;;
42538;SDS011;28173;51.376;6.760;2022-07-29T08:25:31;6.85;;;3.75;;
42538;SDS011;28173;51.376;6.760;2022-07-29T08:28:03;11.98;;;3.47;;
42538;SDS011;28173;51.376;6.760;2022-07-29T08:30:31;7.93;;;3.63;;
42538;SDS011;28173;51.376;6.760;2022-07-29T08:33:00;8.93;;;3.47;;
42538;SDS011;28173;51.376;6.760;2022-07-29T08:35:27;6.68;;;3.30;;
42538;SDS011;28173;51.376;6.760;2022-07-29T08:38:00;8.88;;;3.50;;
42538;SDS011;28173;51.376;6.760;2022-07-29T08:40:27;11.35;;;3.75;;
42538;SDS011;28173;51.376;6.760;2022-07-29T08:42:57;7.53;;;4.35;;
42538;SDS011;28173;51.376;6.760;2022-07-29T08:45:26;10.10;;;3.90;;
42538;SDS011;28173;51.376;6.760;2022-07-29T08:47:54;7.88;;;4.00;;
42538;SDS011;28173;51.376;6.760;2022-07-29T08:50:21;10.40;;;3.80;;
42538;SDS011;28173;51.376;6.760;2022-07-29T08:52:48;14.38;;;3.72;;
42538;SDS011;28173;51.376;6.760;2022-07-29T08:55:15;11.77;;;3.55;;
42538;SDS011;28173;51.376;6.760;2022-07-29T08:57:46;9.13;;;3.80;;
42538;SDS011;28173;51.376;6.760;2022-07-29T09:00:22;13.20;;;3.67;;
42538;SDS011;28173;51.376;6.760;2022-07-29T09:02:51;9.43;;;3.67;;
42538;SDS011;28173;51.376;6.760;2022-07-29T09:05:23;7.18;;;3.95;;
42538;SDS011;28173;51.376;6.760;2022-07-29T09:07:51;8.05;;;3.88;;
42538;SDS011;28173;51.376;6.760;2022-07-29T09:10:18;11.35;;;4.10;;
42538;SDS011;28173;51.376;6.760;2022-07-29T09:12:45;8.60;;;3.90;;
42538;SDS011;28173;51.376;6.760;2022-07-29T09:15:12;12.15;;;4.18;;
42538;SDS011;28173;51.376;6.760;2022-07-29T09:17:45;9.13;;;4.18;;
42538;SDS011;28173;51.376;6.760;2022-07-29T09:20:15;8.68;;;4.25;;
42538;SDS011;28173;51.376;6.760;2022-07-29T09:22:43;8.55;;;4.13;;
42538;SDS011;28173;51.376;6.760;2022-07-29T09:25:13;10.95;;;4.47;;
42538;SDS011;28173;51.376;6.760;2022-07-29T09:27:40;12.13;;;4.75;;
42538;SDS011;28173;51.376;6.760;2022-07-29T09:30:08;13.90;;;4.80;;
42538;SDS011;28173;51.376;6.760;2022-07-29T09:32:54;11.82;;;5.50;;
42538;SDS011;28173;51.376;6.760;2022-07-29T09:35:23;10.38;;;5.07;;
42538;SDS011;28173;51.376;6.760;2022-07-29T09:37:54;13.93;;;5.22;;
42538;SDS011;28173;51.376;6.760;2022-07-29T09:40:25;10.93;;;5.35;;
42538;SDS011;28173;51.376;6.760;2022-07-29T09:42:56;7.55;;;4.55;;
42538;SDS011;28173;51.376;6.760;2022-07-29T09:45:32;13.05;;;5.22;;
42538;SDS011;28173;51.376;6.760;2022-07-29T09:48:17;11.48;;;4.82;;
42538;SDS011;28173;51.376;6.760;2022-07-29T09:50:46;10.82;;;5.20;;
42538;SDS011;28173;51.376;6.760;2022-07-29T09:53:32;15.00;;;5.85;;
42538;SDS011;28173;51.376;6.760;2022-07-29T09:55:59;11.20;;;5.65;;
42538;SDS011;28173;51.376;6.760;2022-07-29T09:58:30;12.82;;;5.10;;
42538;SDS011;28173;51.376;6.760;2022-07-29T10:00:57;11.98;;;4.93;;
42538;SDS011;28173;51.376;6.760;2022-07-29T10:03:24;11.07;;;5.28;;
42538;SDS011;28173;51.376;6.760;2022-07-29T10:06:17;14.30;;;5.25;;
42538;SDS011;28173;51.376;6.760;2022-07-29T10:08:44;12.60;;;4.95;;
42538;SDS011;28173;51.376;6.760;2022-07-29T10:11:15;19.65;;;5.72;;
42538;SDS011;28173;51.376;6.760;2022-07-29T10:13:44;16.42;;;6.05;;
42538;SDS011;28173;51.376;6.760;2022-07-29T10:16:15;12.27;;;5.10;;
42538;SDS011;28173;51.376;6.760;2022-07-29T10:18:45;9.43;;;5.00;;
42538;SDS011;28173;51.376;6.760;2022-07-29T10:21:14;10.32;;;4.55;;
42538;SDS011;28173;51.376;6.760;2022-07-29T10:24:04;9.10;;;4.47;;
42538;SDS011;28173;51.376;6.760;2022-07-29T10:26:34;12.48;;;4.45;;
42538;SDS011;28173;51.376;6.760;2022-07-29T10:29:01;14.75;;;4.93;;
42538;SDS011;28173;51.376;6.760;2022-07-29T10:31:44;11.82;;;4.68;;
42538;SDS011;28173;51.376;6.760;2022-07-29T10:37:46;10.50;;;4.15;;
42538;SDS011;28173;51.376;6.760;2022-07-29T10:44:19;14.77;;;3.97;;
42538;SDS011;28173;51.376;6.760;2022-07-29T10:46:49;5.10;;;3.45;;
42538;SDS011;28173;51.376;6.760;2022-07-29T10:49:23;9.63;;;3.90;;
42538;SDS011;28173;51.376;6.760;2022-07-29T10:54:47;9.43;;;3.65;;
42538;SDS011;28173;51.376;6.760;2022-07-29T10:57:17;8.23;;;3.25;;
42538;SDS011;28173;51.376;6.760;2022-07-29T11:00:26;10.75;;;3.10;;
42538;SDS011;28173;51.376;6.760;2022-07-29T11:03:01;10.18;;;4.78;;
42538;SDS011;28173;51.376;6.760;2022-07-29T11:05:53;10.38;;;5.18;;
42538;SDS011;28173;51.376;6.760;2022-07-29T11:08:21;9.20;;;3.47;;
42538;SDS011;28173;51.376;6.760;2022-07-29T11:10:52;15.70;;;8.85;;
42538;SDS011;28173;51.376;6.760;2022-07-29T11:16:15;8.98;;;3.53;;
42538;SDS011;28173;51.376;6.760;2022-07-29T11:21:56;9.27;;;3.17;;
42538;SDS011;28173;51.376;6.760;2022-07-29T11:24:27;8.10;;;3.92;;
42538;SDS011;28173;51.376;6.760;2022-07-29T11:27:15;11.10;;;3.00;;
42538;SDS011;28173;51.376;6.760;2022-07-29T11:29:48;5.70;;;3.40;;
42538;SDS011;28173;51.376;6.760;2022-07-29T11:32:36;13.23;;;3.35;;
42538;SDS011;28173;51.376;6.760;2022-07-29T11:35:23;7.13;;;2.90;;
42538;SDS011;28173;51.376;6.760;2022-07-29T11:43:47;13.48;;;3.70;;
42538;SDS011;28173;51.376;6.760;2022-07-29T11:49:22;6.97;;;3.05;;
42538;SDS011;28173;51.376;6.760;2022-07-29T11:52:03;8.70;;;5.00;;
42538;SDS011;28173;51.376;6.760;2022-07-29T11:54:52;10.60;;;3.92;;
42538;SDS011;28173;51.376;6.760;2022-07-29T11:57:23;6.72;;;3.28;;
42538;SDS011;28173;51.376;6.760;2022-07-29T12:00:01;12.55;;;3.70;;
42538;SDS011;28173;51.376;6.760;2022-07-29T12:02:49;12.45;;;4.07;;
42538;SDS011;28173;51.376;6.760;2022-07-29T12:05:16;6.38;;;3.40;;
42538;SDS011;28173;51.376;6.760;2022-07-29T12:08:09;13.40;;;4.18;;
42538;SDS011;28173;51.376;6.760;2022-07-29T12:10:40;10.32;;;3.33;;
42538;SDS011;28173;51.376;6.760;2022-07-29T12:13:07;7.72;;;3.67;;
42538;SDS011;28173;51.376;6.760;2022-07-29T12:15:35;9.40;;;3.63;;
42538;SDS011;28173;51.376;6.760;2022-07-29T12:18:16;8.73;;;4.10;;
42538;SDS011;28173;51.376;6.760;2022-07-29T12:20:44;10.90;;;4.68;;
42538;SDS011;28173;51.376;6.760;2022-07-29T12:23:11;8.85;;;3.92;;
42538;SDS011;28173;51.376;6.760;2022-07-29T12:25:42;10.68;;;4.38;;
42538;SDS011;28173;51.376;6.760;2022-07-29T12:28:15;11.77;;;3.88;;
42538;SDS011;28173;51.376;6.760;2022-07-29T12:30:53;8.25;;;3.90;;
42538;SDS011;28173;51.376;6.760;2022-07-29T12:33:25;8.70;;;5.13;;
42538;SDS011;28173;51.376;6.760;2022-07-29T12:35:57;12.73;;;4.15;;
42538;SDS011;28173;51.376;6.760;2022-07-29T12:38:35;10.80;;;4.35;;
42538;SDS011;28173;51.376;6.760;2022-07-29T12:41:02;11.13;;;5.55;;
42538;SDS011;28173;51.376;6.760;2022-07-29T12:43:30;11.90;;;4.13;;
42538;SDS011;28173;51.376;6.760;2022-07-29T12:46:11;14.13;;;4.20;;
42538;SDS011;28173;51.376;6.760;2022-07-29T12:48:41;11.20;;;4.15;;
42538;SDS011;28173;51.376;6.760;2022-07-29T12:51:11;9.88;;;4.45;;
42538;SDS011;28173;51.376;6.760;2022-07-29T12:54:20;8.32;;;3.50;;
42538;SDS011;28173;51.376;6.760;2022-07-29T12:56:41;13.23;;;4.38;;
42538;SDS011;28173;51.376;6.760;2022-07-29T12:59:17;7.25;;;3.33;;
42538;SDS011;28173;51.376;6.760;2022-07-29T13:01:46;11.82;;;3.17;;
42538;SDS011;28173;51.376;6.760;2022-07-29T13:04:28;8.73;;;3.00;;
42538;SDS011;28173;51.376;6.760;2022-07-29T13:07:01;7.15;;;3.40;;
42538;SDS011;28173;51.376;6.760;2022-07-29T13:09:36;9.70;;;3.85;;
42538;SDS011;28173;51.376;6.760;2022-07-29T13:12:10;9.02;;;3.85;;
42538;SDS011;28173;51.376;6.760;2022-07-29T13:14:45;13.75;;;4.72;;
42538;SDS011;28173;51.376;6.760;2022-07-29T13:17:20;12.70;;;3.67;;
42538;SDS011;28173;51.376;6.760;2022-07-29T13:20:06;8.18;;;3.70;;
42538;SDS011;28173;51.376;6.760;2022-07-29T13:22:38;15.30;;;3.78;;
42538;SDS011;28173;51.376;6.760;2022-07-29T13:25:06;10.68;;;3.58;;
42538;SDS011;28173;51.376;6.760;2022-07-29T13:27:34;7.97;;;3.50;;
42538;SDS011;28173;51.376;6.760;2022-07-29T13:30:05;7.82;;;3.70;;
42538;SDS011;28173;51.376;6.760;2022-07-29T13:32:34;8.00;;;3.30;;
42538;SDS011;28173;51.376;6.760;2022-07-29T13:35:07;14.40;;;4.05;;
42538;SDS011;28173;51.376;6.760;2022-07-29T13:37:35;10.00;;;3.53;;
42538;SDS011;28173;51.376;6.760;2022-07-29T13:40:05;14.52;;;3.83;;
42538;SDS011;28173;51.376;6.760;2022-07-29T13:42:33;10.23;;;3.80;;
42538;SDS011;28173;51.376;6.760;2022-07-29T13:45:00;10.23;;;4.20;;
42538;SDS011;28173;51.376;6.760;2022-07-29T13:47:28;8.57;;;3.50;;
42538;SDS011;28173;51.376;6.760;2022-07-29T13:49:58;17.83;;;4.43;;
42538;SDS011;28173;51.376;6.760;2022-07-29T13:52:28;12.43;;;6.85;;
42538;SDS011;28173;51.376;6.760;2022-07-29T13:54:58;9.02;;;4.13;;
42538;SDS011;28173;51.376;6.760;2022-07-29T13:57:25;12.10;;;3.97;;
42538;SDS011;28173;51.376;6.760;2022-07-29T13:59:51;13.65;;;3.88;;
42538;SDS011;28173;51.376;6.760;2022-07-29T14:02:20;11.68;;;4.55;;
42538;SDS011;28173;51.376;6.760;2022-07-29T14:04:53;11.32;;;4.50;;
42538;SDS011;28173;51.376;6.760;2022-07-29T14:07:23;14.63;;;4.28;;
42538;SDS011;28173;51.376;6.760;2022-07-29T14:09:53;10.32;;;3.88;;
42538;SDS011;28173;51.376;6.760;2022-07-29T14:12:45;7.00;;;3.53;;
42538;SDS011;28173;51.376;6.760;2022-07-29T14:15:15;15.05;;;3.92;;
42538;SDS011;28173;51.376;6.760;2022-07-29T14:17:44;8.32;;;3.17;;
42538;SDS011;28173;51.376;6.760;2022-07-29T14:20:10;12.93;;;3.70;;
42538;SDS011;28173;51.376;6.760;2022-07-29T14:22:37;9.75;;;3.63;;
42538;SDS011;28173;51.376;6.760;2022-07-29T14:25:08;7.13;;;3.30;;
42538;SDS011;28173;51.376;6.760;2022-07-29T14:27:41;10.20;;;4.03;;
42538;SDS011;28173;51.376;6.760;2022-07-29T14:30:09;13.75;;;4.10;;
42538;SDS011;28173;51.376;6.760;2022-07-29T14:32:36;11.82;;;4.50;;
42538;SDS011;28173;51.376;6.760;2022-07-29T14:35:04;9.43;;;4.70;;
42538;SDS011;28173;51.376;6.760;2022-07-29T14:37:31;11.35;;;5.07;;
42538;SDS011;28173;51.376;6.760;2022-07-29T14:40:05;13.20;;;5.47;;
42538;SDS011;28173;51.376;6.760;2022-07-29T14:42:33;11.27;;;4.47;;
42538;SDS011;28173;51.376;6.760;2022-07-29T14:45:03;9.80;;;4.35;;
42538;SDS011;28173;51.376;6.760;2022-07-29T14:47:31;10.48;;;4.28;;
42538;SDS011;28173;51.376;6.760;2022-07-29T14:49:57;9.77;;;3.80;;
42538;SDS011;28173;51.376;6.760;2022-07-29T14:52:24;12.88;;;4.22;;
42538;SDS011;28173;51.376;6.760;2022-07-29T14:54:51;8.75;;;3.38;;
42538;SDS011;28173;51.376;6.760;2022-07-29T14:57:18;10.45;;;3.75;;
42538;SDS011;28173;51.376;6.760;2022-07-29T14:59:46;15.43;;;3.72;;
42538;SDS011;28173;51.376;6.760;2022-07-29T15:02:12;11.10;;;3.75;;
42538;SDS011;28173;51.376;6.760;2022-07-29T15:04:39;8.82;;;3.55;;
42538;SDS011;28173;51.376;6.760;2022-07-29T15:07:06;7.97;;;3.17;;
42538;SDS011;28173;51.376;6.760;2022-07-29T15:09:32;10.60;;;3.03;;
42538;SDS011;28173;51.376;6.760;2022-07-29T15:12:06;7.13;;;2.85;;
42538;SDS011;28173;51.376;6.760;2022-07-29T15:14:39;9.45;;;3.15;;
42538;SDS011;28173;51.376;6.760;2022-07-29T15:17:08;9.60;;;3.15;;
42538;SDS011;28173;51.376;6.760;2022-07-29T15:19:34;6.32;;;2.90;;
42538;SDS011;28173;51.376;6.760;2022-07-29T15:22:02;10.10;;;3.60;;
42538;SDS011;28173;51.376;6.760;2022-07-29T15:24:31;5.50;;;2.90;;
42538;SDS011;28173;51.376;6.760;2022-07-29T15:26:58;6.65;;;3.10;;
42538;SDS011;28173;51.376;6.760;2022-07-29T15:29:29;8.45;;;3.28;;
42538;SDS011;28173;51.376;6.760;2022-07-29T15:31:56;10.27;;;3.60;;
42538;SDS011;28173;51.376;6.760;2022-07-29T15:34:26;10.48;;;3.60;;
42538;SDS011;28173;51.376;6.760;2022-07-29T15:36:53;5.82;;;2.53;;
42538;SDS011;28173;51.376;6.760;2022-07-29T15:39:20;9.27;;;3.30;;
42538;SDS011;28173;51.376;6.760;2022-07-29T15:41:48;10.98;;;3.33;;
42538;SDS011;28173;51.376;6.760;2022-07-29T15:44:15;7.85;;;2.50;;
42538;SDS011;28173;51.376;6.760;2022-07-29T15:46:42;12.90;;;4.35;;
42538;SDS011;28173;51.376;6.760;2022-07-29T15:49:35;6.00;;;2.00;;
42538;SDS011;28173;51.376;6.760;2022-07-29T15:52:18;9.25;;;2.72;;
42538;SDS011;28173;51.376;6.760;2022-07-29T15:54:53;9.32;;;2.42;;